sensor_id;sensor_type;location;lat;lon;timestamp;pressure;altitude;pressure_sealevel;temperature;humidity
76406;BME280;65234;50.044;19.258;2023-03-01T00:01:30;99989.94;;;-4.05;100.00
76406;BME280;65234;50.044;19.258;2023-03-01T00:03:57;99991.56;;;-4.04;100.00
76406;BME280;65234;50.044;19.258;2023-03-01T00:06:23;99990.75;;;-4.10;100.00
76406;BME280;65234;50.044;19.258;2023-03-01T00:08:50;99989.97;;;-4.15;100.00
76406;BME280;65234;50.044;19.258;2023-03-01T00:11:18;100000.22;;;-4.17;100.00
76406;BME280;65234;50.044;19.258;2023-03-01T00:13:47;99994.56;;;-4.16;100.00
76406;BME280;65234;50.044;19.258;2023-03-01T00:16:16;99994.28;;;-4.14;100.00
76406;BME280;65234;50.044;19.258;2023-03-01T00:18:42;99989.41;;;-4.22;100.00
76406;BME280;65234;50.044;19.258;2023-03-01T00:21:08;99982.91;;;-4.27;100.00
76406;BME280;65234;50.044;19.258;2023-03-01T00:23:35;99984.28;;;-4.29;100.00
76406;BME280;65234;50.044;19.258;2023-03-01T00:26:00;99975.09;;;-4.33;100.00
76406;BME280;65234;50.044;19.258;2023-03-01T00:28:26;99985.09;;;-4.34;100.00
76406;BME280;65234;50.044;19.258;2023-03-01T00:30:53;99979.69;;;-4.34;100.00
76406;BME280;65234;50.044;19.258;2023-03-01T00:33:19;99980.50;;;-4.33;100.00
76406;BME280;65234;50.044;19.258;2023-03-01T00:35:45;99979.69;;;-4.34;100.00
76406;BME280;65234;50.044;19.258;2023-03-01T00:38:11;99971.84;;;-4.35;100.00
76406;BME280;65234;50.044;19.258;2023-03-01T00:40:36;99967.78;;;-4.33;100.00
76406;BME280;65234;50.044;19.258;2023-03-01T00:43:03;99974.25;;;-4.34;100.00
76406;BME280;65234;50.044;19.258;2023-03-01T00:45:29;99971.56;;;-4.34;100.00
76406;BME280;65234;50.044;19.258;2023-03-01T00:47:56;99966.16;;;-4.34;100.00
76406;BME280;65234;50.044;19.258;2023-03-01T00:50:22;99964.25;;;-4.33;100.00
76406;BME280;65234;50.044;19.258;2023-03-01T00:52:52;99965.91;;;-4.32;100.00
76406;BME280;65234;50.044;19.258;2023-03-01T00:55:18;99974.28;;;-4.29;100.00
76406;BME280;65234;50.044;19.258;2023-03-01T00:57:44;99972.66;;;-4.30;100.00
76406;BME280;65234;50.044;19.258;2023-03-01T01:00:10;99962.09;;;-4.36;100.00
76406;BME280;65234;50.044;19.258;2023-03-01T01:02:37;99960.75;;;-4.34;100.00
76406;BME280;65234;50.044;19.258;2023-03-01T01:05:04;99955.88;;;-4.32;100.00
76406;BME280;65234;50.044;19.258;2023-03-01T01:07:30;99955.34;;;-4.34;100.00
76406;BME280;65234;50.044;19.258;2023-03-01T01:09:56;99955.34;;;-4.39;100.00
76406;BME280;65234;50.044;19.258;2023-03-01T01:12:22;99965.34;;;-4.39;100.00
76406;BME280;65234;50.044;19.258;2023-03-01T01:14:48;99960.22;;;-4.41;100.00
76406;BME280;65234;50.044;19.258;2023-03-01T01:17:14;99956.44;;;-4.40;100.00
76406;BME280;65234;50.044;19.258;2023-03-01T01:19:39;99953.47;;;-4.43;100.00
76406;BME280;65234;50.044;19.258;2023-03-01T01:22:06;99952.38;;;-4.47;100.00
76406;BME280;65234;50.044;19.258;2023-03-01T01:24:32;99951.84;;;-4.54;100.00
76406;BME280;65234;50.044;19.258;2023-03-01T01:26:58;99948.31;;;-4.55;100.00
76406;BME280;65234;50.044;19.258;2023-03-01T01:29:23;99944.25;;;-4.52;100.00
76406;BME280;65234;50.044;19.258;2023-03-01T01:31:49;99936.97;;;-4.52;100.00
76406;BME280;65234;50.044;19.258;2023-03-01T01:34:17;99937.78;;;-4.51;100.00
76406;BME280;65234;50.044;19.258;2023-03-01T01:36:47;99940.19;;;-4.50;100.00
76406;BME280;65234;50.044;19.258;2023-03-01T01:39:14;99938.84;;;-4.52;100.00
76406;BME280;65234;50.044;19.258;2023-03-01T01:41:41;99941.28;;;-4.51;100.00
76406;BME280;65234;50.044;19.258;2023-03-01T01:44:14;99936.97;;;-4.52;100.00
76406;BME280;65234;50.044;19.258;2023-03-01T01:46:41;99937.47;;;-4.50;100.00
76406;BME280;65234;50.044;19.258;2023-03-01T01:49:19;99931.28;;;-4.55;100.00
76406;BME280;65234;50.044;19.258;2023-03-01T01:51:48;99925.06;;;-4.56;100.00
76406;BME280;65234;50.044;19.258;2023-03-01T01:54:20;99923.97;;;-4.60;100.00
76406;BME280;65234;50.044;19.258;2023-03-01T01:56:53;99927.75;;;-4.61;100.00
76406;BME280;65234;50.044;19.258;2023-03-01T01:59:20;99922.91;;;-4.64;100.00
76406;BME280;65234;50.044;19.258;2023-03-01T02:01:47;99931.84;;;-4.58;100.00
76406;BME280;65234;50.044;19.258;2023-03-01T02:04:12;99925.88;;;-4.55;100.00
76406;BME280;65234;50.044;19.258;2023-03-01T02:06:43;99928.84;;;-4.57;100.00
76406;BME280;65234;50.044;19.258;2023-03-01T02:09:14;99926.44;;;-4.58;100.00
76406;BME280;65234;50.044;19.258;2023-03-01T02:11:43;99924.78;;;-4.59;100.00
76406;BME280;65234;50.044;19.258;2023-03-01T02:14:09;99922.34;;;-4.61;100.00
76406;BME280;65234;50.044;19.258;2023-03-01T02:16:35;99919.09;;;-4.58;100.00
76406;BME280;65234;50.044;19.258;2023-03-01T02:19:03;99919.66;;;-4.56;100.00
76406;BME280;65234;50.044;19.258;2023-03-01T02:21:37;99914.78;;;-4.59;100.00
76406;BME280;65234;50.044;19.258;2023-03-01T02:24:18;99914.53;;;-4.62;100.00
76406;BME280;65234;50.044;19.258;2023-03-01T02:26:50;99913.72;;;-4.63;100.00
76406;BME280;65234;50.044;19.258;2023-03-01T02:29:18;99913.69;;;-4.68;100.00
76406;BME280;65234;50.044;19.258;2023-03-01T02:31:44;99917.22;;;-4.67;100.00
76406;BME280;65234;50.044;19.258;2023-03-01T02:34:13;99915.84;;;-4.70;100.00
76406;BME280;65234;50.044;19.258;2023-03-01T02:36:41;99911.00;;;-4.73;100.00
76406;BME280;65234;50.044;19.258;2023-03-01T02:39:11;99910.47;;;-4.75;100.00
76406;BME280;65234;50.044;19.258;2023-03-01T02:41:39;99913.44;;;-4.77;100.00
76406;BME280;65234;50.044;19.258;2023-03-01T02:44:06;99915.88;;;-4.75;100.00
76406;BME280;65234;50.044;19.258;2023-03-01T02:46:33;99915.59;;;-4.79;100.00
76406;BME280;65234;50.044;19.258;2023-03-01T02:48:59;99918.56;;;-4.80;100.00
76406;BME280;65234;50.044;19.258;2023-03-01T02:51:44;99922.59;;;-4.78;100.00
76406;BME280;65234;50.044;19.258;2023-03-01T02:54:17;99917.47;;;-4.74;100.00
76406;BME280;65234;50.044;19.258;2023-03-01T02:56:45;99912.06;;;-4.74;100.00
76406;BME280;65234;50.044;19.258;2023-03-01T02:59:11;99915.59;;;-4.79;100.00
76406;BME280;65234;50.044;19.258;2023-03-01T03:01:39;99914.78;;;-4.79;100.00
76406;BME280;65234;50.044;19.258;2023-03-01T03:04:05;99916.41;;;-4.83;100.00
76406;BME280;65234;50.044;19.258;2023-03-01T03:06:31;99904.53;;;-4.82;100.00
76406;BME280;65234;50.044;19.258;2023-03-01T03:08:57;99915.59;;;-4.79;100.00
76406;BME280;65234;50.044;19.258;2023-03-01T03:11:23;99915.59;;;-4.79;100.00
76406;BME280;65234;50.044;19.258;2023-03-01T03:13:48;99911.00;;;-4.78;100.00
76406;BME280;65234;50.044;19.258;2023-03-01T03:16:14;99913.41;;;-4.82;100.00
76406;BME280;65234;50.044;19.258;2023-03-01T03:18:42;99908.56;;;-4.80;100.00
76406;BME280;65234;50.044;19.258;2023-03-01T03:21:08;99901.81;;;-4.82;100.00
76406;BME280;65234;50.044;19.258;2023-03-01T03:23:33;99910.44;;;-4.85;100.00
76406;BME280;65234;50.044;19.258;2023-03-01T03:25:59;99912.06;;;-4.89;100.00
76406;BME280;65234;50.044;19.258;2023-03-01T03:28:25;99910.44;;;-4.95;100.00
76406;BME280;65234;50.044;19.258;2023-03-01T03:30:51;99909.34;;;-4.99;100.00
76406;BME280;65234;50.044;19.258;2023-03-01T03:33:16;99910.16;;;-4.99;100.00
76406;BME280;65234;50.044;19.258;2023-03-01T03:35:45;99904.50;;;-5.02;100.00
76406;BME280;65234;50.044;19.258;2023-03-01T03:38:12;99900.69;;;-5.01;100.00
76406;BME280;65234;50.044;19.258;2023-03-01T03:40:40;99915.28;;;-5.07;100.00
76406;BME280;65234;50.044;19.258;2023-03-01T03:43:09;99910.13;;;-5.09;100.00
76406;BME280;65234;50.044;19.258;2023-03-01T03:45:36;99907.44;;;-5.09;100.00
76406;BME280;65234;50.044;19.258;2023-03-01T03:48:03;99894.22;;;-5.10;100.00
76406;BME280;65234;50.044;19.258;2023-03-01T03:50:29;99897.44;;;-5.08;100.00
76406;BME280;65234;50.044;19.258;2023-03-01T03:52:59;99895.81;;;-5.09;100.00
76406;BME280;65234;50.044;19.258;2023-03-01T03:55:25;99892.31;;;-5.10;100.00
76406;BME280;65234;50.044;19.258;2023-03-01T03:57:51;99898.00;;;-5.11;100.00
76406;BME280;65234;50.044;19.258;2023-03-01T04:00:19;99888.78;;;-5.15;100.00
76406;BME280;65234;50.044;19.258;2023-03-01T04:02:46;99880.97;;;-5.22;100.00
76406;BME280;65234;50.044;19.258;2023-03-01T04:05:14;99882.03;;;-5.23;100.00
76406;BME280;65234;50.044;19.258;2023-03-01T04:07:41;99886.63;;;-5.24;100.00
76406;BME280;65234;50.044;19.258;2023-03-01T04:10:14;99888.78;;;-5.26;100.00
76406;BME280;65234;50.044;19.258;2023-03-01T04:12:40;99893.09;;;-5.25;100.00
76406;BME280;65234;50.044;19.258;2023-03-01T04:15:07;99901.75;;;-5.22;100.00
76406;BME280;65234;50.044;19.258;2023-03-01T04:17:32;99902.00;;;-5.24;100.00
76406;BME280;65234;50.044;19.258;2023-03-01T04:19:59;99909.84;;;-5.22;100.00
76406;BME280;65234;50.044;19.258;2023-03-01T04:22:24;99911.19;;;-5.20;100.00
76406;BME280;65234;50.044;19.258;2023-03-01T04:24:50;99918.50;;;-5.15;100.00
76406;BME280;65234;50.044;19.258;2023-03-01T04:27:17;99916.34;;;-5.13;100.00
76406;BME280;65234;50.044;19.258;2023-03-01T04:29:43;99920.13;;;-5.14;100.00
76406;BME280;65234;50.044;19.258;2023-03-01T04:32:08;99903.94;;;-5.14;100.00
76406;BME280;65234;50.044;19.258;2023-03-01T04:34:34;99908.78;;;-5.21;100.00
76406;BME280;65234;50.044;19.258;2023-03-01T04:37:00;99899.88;;;-5.22;100.00
76406;BME280;65234;50.044;19.258;2023-03-01T04:39:26;99897.97;;;-5.27;100.00
76406;BME280;65234;50.044;19.258;2023-03-01T04:41:51;99902.53;;;-5.27;100.00
76406;BME280;65234;50.044;19.258;2023-03-01T04:44:19;99910.38;;;-5.31;100.00
76406;BME280;65234;50.044;19.258;2023-03-01T04:46:44;99906.59;;;-5.35;100.00
76406;BME280;65234;50.044;19.258;2023-03-01T04:49:10;99902.50;;;-5.37;100.00
76406;BME280;65234;50.044;19.258;2023-03-01T04:51:36;99912.53;;;-5.38;100.00
76406;BME280;65234;50.044;19.258;2023-03-01T04:54:02;99904.13;;;-5.36;100.00
76406;BME280;65234;50.044;19.258;2023-03-01T04:56:27;99896.31;;;-5.38;100.00
76406;BME280;65234;50.044;19.258;2023-03-01T04:58:53;99906.31;;;-5.38;100.00
76406;BME280;65234;50.044;19.258;2023-03-01T05:01:20;99890.34;;;-5.40;100.00
76406;BME280;65234;50.044;19.258;2023-03-01T05:03:48;99900.38;;;-5.35;100.00
76406;BME280;65234;50.044;19.258;2023-03-01T05:06:14;99905.50;;;-5.39;100.00
76406;BME280;65234;50.044;19.258;2023-03-01T05:08:41;99886.84;;;-5.40;100.00
76406;BME280;65234;50.044;19.258;2023-03-01T05:11:07;99893.63;;;-5.38;100.00
76406;BME280;65234;50.044;19.258;2023-03-01T05:13:33;99889.28;;;-5.39;100.00
76406;BME280;65234;50.044;19.258;2023-03-01T05:16:01;99883.88;;;-5.39;100.00
76406;BME280;65234;50.044;19.258;2023-03-01T05:18:29;99887.13;;;-5.37;100.00
76406;BME280;65234;50.044;19.258;2023-03-01T05:21:00;99887.66;;;-5.40;100.00
76406;BME280;65234;50.044;19.258;2023-03-01T05:23:26;99888.75;;;-5.36;100.00
76406;BME280;65234;50.044;19.258;2023-03-01T05:25:52;99884.16;;;-5.35;100.00
76406;BME280;65234;50.044;19.258;2023-03-01T05:28:19;99885.78;;;-5.34;100.00
76406;BME280;65234;50.044;19.258;2023-03-01T05:30:45;99890.91;;;-5.38;100.00
76406;BME280;65234;50.044;19.258;2023-03-01T05:33:11;99891.44;;;-5.36;100.00
76406;BME280;65234;50.044;19.258;2023-03-01T05:35:39;99892.53;;;-5.32;100.00
76406;BME280;65234;50.044;19.258;2023-03-01T05:38:04;99892.81;;;-5.28;100.00
76406;BME280;65234;50.044;19.258;2023-03-01T05:40:33;99888.47;;;-5.29;100.00
76406;BME280;65234;50.044;19.258;2023-03-01T05:42:59;99878.00;;;-5.26;100.00
76406;BME280;65234;50.044;19.258;2023-03-01T05:45:26;99883.38;;;-5.26;100.00
76406;BME280;65234;50.044;19.258;2023-03-01T05:47:53;99886.34;;;-5.27;100.00
76406;BME280;65234;50.044;19.258;2023-03-01T05:50:20;99885.00;;;-5.30;100.00
76406;BME280;65234;50.044;19.258;2023-03-01T05:52:49;99890.94;;;-5.28;100.00
76406;BME280;65234;50.044;19.258;2023-03-01T05:55:16;99893.38;;;-5.26;100.00
76406;BME280;65234;50.044;19.258;2023-03-01T05:57:42;99892.03;;;-5.24;100.00
76406;BME280;65234;50.044;19.258;2023-03-01T06:00:10;99870.13;;;-5.27;100.00
76406;BME280;65234;50.044;19.258;2023-03-01T06:02:36;99887.16;;;-5.16;100.00
76406;BME280;65234;50.044;19.258;2023-03-01T06:05:01;99891.25;;;-5.14;100.00
76406;BME280;65234;50.044;19.258;2023-03-01T06:07:27;99888.78;;;-5.05;100.00
76406;BME280;65234;50.044;19.258;2023-03-01T06:09:54;99906.66;;;-4.94;100.00
76406;BME280;65234;50.044;19.258;2023-03-01T06:12:20;99905.84;;;-4.95;100.00
76406;BME280;65234;50.044;19.258;2023-03-01T06:14:46;99893.66;;;-4.97;100.00
76406;BME280;65234;50.044;19.258;2023-03-01T06:17:12;99892.88;;;-4.93;100.00
76406;BME280;65234;50.044;19.258;2023-03-01T06:19:37;99900.72;;;-4.91;100.00
76406;BME280;65234;50.044;19.258;2023-03-01T06:22:04;99909.38;;;-4.84;100.00
76406;BME280;65234;50.044;19.258;2023-03-01T06:24:29;99902.91;;;-4.78;100.00
76406;BME280;65234;50.044;19.258;2023-03-01T06:26:57;99905.59;;;-4.73;100.00
76406;BME280;65234;50.044;19.258;2023-03-01T06:29:22;99903.97;;;-4.69;100.00
76406;BME280;65234;50.044;19.258;2023-03-01T06:31:48;99909.91;;;-4.62;100.00
76406;BME280;65234;50.044;19.258;2023-03-01T06:34:14;99911.28;;;-4.54;100.00
76406;BME280;65234;50.044;19.258;2023-03-01T06:36:40;99902.34;;;-4.50;100.00
76406;BME280;65234;50.044;19.258;2023-03-01T06:39:06;99898.56;;;-4.39;100.00
76406;BME280;65234;50.044;19.258;2023-03-01T06:41:32;99897.97;;;-4.31;100.00
76406;BME280;65234;50.044;19.258;2023-03-01T06:43:59;99900.69;;;-4.25;100.00
76406;BME280;65234;50.044;19.258;2023-03-01T06:46:25;99893.91;;;-4.18;100.00
76406;BME280;65234;50.044;19.258;2023-03-01T06:48:51;99900.91;;;-4.07;100.00
76406;BME280;65234;50.044;19.258;2023-03-01T06:51:17;99897.94;;;-4.00;100.00
76406;BME280;65234;50.044;19.258;2023-03-01T06:53:42;99895.75;;;-3.93;100.00
76406;BME280;65234;50.044;19.258;2023-03-01T06:56:08;99903.06;;;-3.89;100.00
76406;BME280;65234;50.044;19.258;2023-03-01T06:58:34;99898.97;;;-3.81;100.00
76406;BME280;65234;50.044;19.258;2023-03-01T07:01:05;99905.72;;;-3.73;100.00
76406;BME280;65234;50.044;19.258;2023-03-01T07:03:31;99899.72;;;-3.65;100.00
76406;BME280;65234;50.044;19.258;2023-03-01T07:05:56;99903.19;;;-3.55;100.00
76406;BME280;65234;50.044;19.258;2023-03-01T07:08:22;99896.94;;;-3.45;100.00
76406;BME280;65234;50.044;19.258;2023-03-01T07:10:48;99888.50;;;-3.44;100.00
76406;BME280;65234;50.044;19.258;2023-03-01T07:13:13;99896.56;;;-3.28;100.00
76406;BME280;65234;50.044;19.258;2023-03-01T07:15:40;99899.75;;;-3.16;100.00
76406;BME280;65234;50.044;19.258;2023-03-01T07:18:07;99910.28;;;-3.10;100.00
76406;BME280;65234;50.044;19.258;2023-03-01T07:20:33;99902.66;;;-3.08;100.00
76406;BME280;65234;50.044;19.258;2023-03-01T07:22:58;99895.84;;;-3.00;100.00
76406;BME280;65234;50.044;19.258;2023-03-01T07:25:24;99898.75;;;-2.87;100.00
76406;BME280;65234;50.044;19.258;2023-03-01T07:27:50;99891.69;;;-2.88;100.00
76406;BME280;65234;50.044;19.258;2023-03-01T07:30:17;99890.28;;;-2.80;100.00
76406;BME280;65234;50.044;19.258;2023-03-01T07:32:42;99892.63;;;-2.68;100.00
76406;BME280;65234;50.044;19.258;2023-03-01T07:35:10;99884.75;;;-2.65;100.00
76406;BME280;65234;50.044;19.258;2023-03-01T07:37:35;99874.66;;;-2.59;100.00
76406;BME280;65234;50.044;19.258;2023-03-01T07:40:01;99863.66;;;-2.44;100.00
76406;BME280;65234;50.044;19.258;2023-03-01T07:42:27;99861.16;;;-2.35;100.00
76406;BME280;65234;50.044;19.258;2023-03-01T07:44:53;99863.25;;;-2.27;100.00
76406;BME280;65234;50.044;19.258;2023-03-01T07:47:18;99853.44;;;-2.23;100.00
76406;BME280;65234;50.044;19.258;2023-03-01T07:49:44;99851.94;;;-2.11;100.00
76406;BME280;65234;50.044;19.258;2023-03-01T07:52:11;99846.13;;;-1.99;100.00
76406;BME280;65234;50.044;19.258;2023-03-01T07:54:37;99857.16;;;-1.91;100.00
76406;BME280;65234;50.044;19.258;2023-03-01T07:57:03;99851.31;;;-1.79;100.00
76406;BME280;65234;50.044;19.258;2023-03-01T07:59:29;99850.50;;;-1.79;100.00
76406;BME280;65234;50.044;19.258;2023-03-01T08:01:55;99849.03;;;-1.72;100.00
76406;BME280;65234;50.044;19.258;2023-03-01T08:04:21;99845.91;;;-1.60;100.00
76406;BME280;65234;50.044;19.258;2023-03-01T08:06:46;99855.63;;;-1.54;100.00
76406;BME280;65234;50.044;19.258;2023-03-01T08:09:14;99856.88;;;-1.47;100.00
76406;BME280;65234;50.044;19.258;2023-03-01T08:11:39;99857.09;;;-1.43;100.00
76406;BME280;65234;50.044;19.258;2023-03-01T08:14:05;99857.31;;;-1.39;100.00
76406;BME280;65234;50.044;19.258;2023-03-01T08:16:31;99855.00;;;-1.27;100.00
76406;BME280;65234;50.044;19.258;2023-03-01T08:18:57;99854.13;;;-1.23;100.00
76406;BME280;65234;50.044;19.258;2023-03-01T08:21:23;99854.69;;;-1.07;100.00
76406;BME280;65234;50.044;19.258;2023-03-01T08:23:49;99850.94;;;-0.92;100.00
76406;BME280;65234;50.044;19.258;2023-03-01T08:26:18;99853.88;;;-0.89;100.00
76406;BME280;65234;50.044;19.258;2023-03-01T08:28:45;99849.16;;;-0.83;100.00
76406;BME280;65234;50.044;19.258;2023-03-01T08:31:14;99853.19;;;-0.81;100.00
76406;BME280;65234;50.044;19.258;2023-03-01T08:33:40;99850.00;;;-0.69;100.00
76406;BME280;65234;50.044;19.258;2023-03-01T08:36:06;99850.22;;;-0.66;100.00
76406;BME280;65234;50.044;19.258;2023-03-01T08:38:32;99849.47;;;-0.53;100.00
76406;BME280;65234;50.044;19.258;2023-03-01T08:41:00;99846.06;;;-0.44;100.00
76406;BME280;65234;50.044;19.258;2023-03-01T08:43:27;99845.25;;;-0.31;100.00
76406;BME280;65234;50.044;19.258;2023-03-01T08:45:53;99841.34;;;-0.25;100.00
76406;BME280;65234;50.044;19.258;2023-03-01T08:48:18;99841.75;;;-0.18;100.00
76406;BME280;65234;50.044;19.258;2023-03-01T08:50:44;99840.66;;;-0.04;100.00
76406;BME280;65234;50.044;19.258;2023-03-01T08:53:10;99840.88;;;0.00;100.00
76406;BME280;65234;50.044;19.258;2023-03-01T08:55:35;99830.56;;;-0.03;100.00
76406;BME280;65234;50.044;19.258;2023-03-01T08:58:01;99831.97;;;0.08;100.00
76406;BME280;65234;50.044;19.258;2023-03-01T09:00:34;99816.25;;;0.05;100.00
76406;BME280;65234;50.044;19.258;2023-03-01T09:03:00;99823.22;;;0.11;100.00
76406;BME280;65234;50.044;19.258;2023-03-01T09:05:26;99830.19;;;0.17;100.00
76406;BME280;65234;50.044;19.258;2023-03-01T09:07:52;99820.28;;;0.21;100.00
76406;BME280;65234;50.044;19.258;2023-03-01T09:10:17;99830.47;;;0.43;100.00
76406;BME280;65234;50.044;19.258;2023-03-01T09:12:43;99827.81;;;0.65;100.00
76406;BME280;65234;50.044;19.258;2023-03-01T09:15:09;99824.16;;;0.70;100.00
76406;BME280;65234;50.044;19.258;2023-03-01T09:17:37;99823.19;;;0.88;100.00
76406;BME280;65234;50.044;19.258;2023-03-01T09:20:03;99824.69;;;0.94;100.00
76406;BME280;65234;50.044;19.258;2023-03-01T09:22:29;99825.38;;;1.00;100.00
76406;BME280;65234;50.044;19.258;2023-03-01T09:24:55;99818.00;;;1.00;100.00
76406;BME280;65234;50.044;19.258;2023-03-01T09:27:20;99816.25;;;1.04;100.00
76406;BME280;65234;50.044;19.258;2023-03-01T09:29:46;99818.50;;;1.02;100.00
76406;BME280;65234;50.044;19.258;2023-03-01T09:32:12;99813.09;;;1.11;100.00
76406;BME280;65234;50.044;19.258;2023-03-01T09:34:39;99817.13;;;1.13;99.57
76406;BME280;65234;50.044;19.258;2023-03-01T09:37:05;99821.59;;;1.09;100.00
76406;BME280;65234;50.044;19.258;2023-03-01T09:39:30;99828.13;;;1.22;98.89
76406;BME280;65234;50.044;19.258;2023-03-01T09:41:59;99828.16;;;1.30;99.03
76406;BME280;65234;50.044;19.258;2023-03-01T09:44:32;99824.03;;;1.33;97.19
76406;BME280;65234;50.044;19.258;2023-03-01T09:47:02;99828.38;;;1.34;97.36
76406;BME280;65234;50.044;19.258;2023-03-01T09:49:30;99834.97;;;1.64;96.92
76406;BME280;65234;50.044;19.258;2023-03-01T09:52:02;99821.50;;;1.67;96.63
76406;BME280;65234;50.044;19.258;2023-03-01T09:54:29;99823.75;;;1.74;96.62
76406;BME280;65234;50.044;19.258;2023-03-01T09:57:09;99821.53;;;1.76;96.56
76406;BME280;65234;50.044;19.258;2023-03-01T09:59:56;99810.44;;;1.72;95.49
76406;BME280;65234;50.044;19.258;2023-03-01T10:02:28;99811.31;;;1.90;95.96
76406;BME280;65234;50.044;19.258;2023-03-01T10:05:01;99810.06;;;1.96;95.82
76406;BME280;65234;50.044;19.258;2023-03-01T10:07:40;99810.91;;;2.14;94.88
76406;BME280;65234;50.044;19.258;2023-03-01T10:10:17;99808.19;;;2.14;94.61
76406;BME280;65234;50.044;19.258;2023-03-01T10:12:47;99805.47;;;2.14;95.15
76406;BME280;65234;50.044;19.258;2023-03-01T10:15:15;99806.91;;;2.11;95.65
76406;BME280;65234;50.044;19.258;2023-03-01T10:17:46;99801.50;;;2.28;94.95
76406;BME280;65234;50.044;19.258;2023-03-01T10:20:19;99799.13;;;2.44;93.13
76406;BME280;65234;50.044;19.258;2023-03-01T10:22:46;99791.38;;;2.46;92.42
76406;BME280;65234;50.044;19.258;2023-03-01T10:25:15;99788.03;;;2.41;92.39
76406;BME280;65234;50.044;19.258;2023-03-01T10:27:52;99784.31;;;2.45;91.96
76406;BME280;65234;50.044;19.258;2023-03-01T10:30:20;99798.50;;;2.56;88.64
76406;BME280;65234;50.044;19.258;2023-03-01T10:32:49;99795.28;;;2.62;90.18
76406;BME280;65234;50.044;19.258;2023-03-01T10:35:18;99785.63;;;2.65;89.93
76406;BME280;65234;50.044;19.258;2023-03-01T10:38:02;99783.56;;;2.79;89.03
76406;BME280;65234;50.044;19.258;2023-03-01T10:40:28;99783.72;;;2.91;87.95
76406;BME280;65234;50.044;19.258;2023-03-01T10:42:57;99777.75;;;2.89;90.41
76406;BME280;65234;50.044;19.258;2023-03-01T10:45:31;99784.03;;;2.90;90.97
76406;BME280;65234;50.044;19.258;2023-03-01T10:48:06;99782.09;;;3.07;90.84
76406;BME280;65234;50.044;19.258;2023-03-01T10:50:34;99775.97;;;3.10;89.19
76406;BME280;65234;50.044;19.258;2023-03-01T10:53:03;99775.16;;;3.18;89.31
76406;BME280;65234;50.044;19.258;2023-03-01T10:55:33;99776.25;;;3.35;89.24
76406;BME280;65234;50.044;19.258;2023-03-01T10:58:09;99774.97;;;3.32;87.13
76406;BME280;65234;50.044;19.258;2023-03-01T11:00:47;99775.16;;;3.36;88.37
76406;BME280;65234;50.044;19.258;2023-03-01T11:03:14;99768.19;;;3.47;84.97
76406;BME280;65234;50.044;19.258;2023-03-01T11:05:57;99765.63;;;3.33;86.23
76406;BME280;65234;50.044;19.258;2023-03-01T11:08:40;99757.22;;;3.47;86.01
76406;BME280;65234;50.044;19.258;2023-03-01T11:11:25;99754.50;;;3.38;83.86
76406;BME280;65234;50.044;19.258;2023-03-01T11:13:57;99749.53;;;3.31;84.89
76406;BME280;65234;50.044;19.258;2023-03-01T11:16:29;99748.75;;;3.22;83.57
76406;BME280;65234;50.044;19.258;2023-03-01T11:18:58;99743.25;;;3.40;85.05
76406;BME280;65234;50.044;19.258;2023-03-01T11:21:25;99739.34;;;3.41;84.24
76406;BME280;65234;50.044;19.258;2023-03-01T11:23:53;99739.47;;;3.53;82.52
76406;BME280;65234;50.044;19.258;2023-03-01T11:26:19;99737.50;;;3.62;83.51
76406;BME280;65234;50.044;19.258;2023-03-01T11:28:50;99738.28;;;3.71;82.05
76406;BME280;65234;50.044;19.258;2023-03-01T11:31:18;99724.78;;;3.66;84.11
76406;BME280;65234;50.044;19.258;2023-03-01T11:33:48;99728.63;;;3.65;84.35
76406;BME280;65234;50.044;19.258;2023-03-01T11:36:30;99736.44;;;3.84;83.70
76406;BME280;65234;50.044;19.258;2023-03-01T11:39:17;99717.97;;;3.72;81.74
76406;BME280;65234;50.044;19.258;2023-03-01T11:41:49;99726.56;;;3.91;79.75
76406;BME280;65234;50.044;19.258;2023-03-01T11:44:20;99719.59;;;4.02;81.26
76406;BME280;65234;50.044;19.258;2023-03-01T11:47:07;99722.69;;;3.92;80.65
76406;BME280;65234;50.044;19.258;2023-03-01T11:49:47;99712.47;;;3.72;81.32
76406;BME280;65234;50.044;19.258;2023-03-01T11:52:21;99708.63;;;4.02;78.95
76406;BME280;65234;50.044;19.258;2023-03-01T11:55:11;99715.56;;;4.00;79.07
76406;BME280;65234;50.044;19.258;2023-03-01T11:57:51;99706.69;;;4.03;78.87
76406;BME280;65234;50.044;19.258;2023-03-01T12:00:44;99701.75;;;4.17;80.07
76406;BME280;65234;50.044;19.258;2023-03-01T12:03:54;99709.09;;;4.34;78.85
76406;BME280;65234;50.044;19.258;2023-03-01T12:06:37;99701.72;;;4.46;77.76
76406;BME280;65234;50.044;19.258;2023-03-01T12:09:17;99699.44;;;4.48;78.49
76406;BME280;65234;50.044;19.258;2023-03-01T12:11:58;99707.47;;;4.53;76.34
76406;BME280;65234;50.044;19.258;2023-03-01T12:14:36;99694.28;;;4.47;77.25
76406;BME280;65234;50.044;19.258;2023-03-01T12:17:15;99688.16;;;4.50;76.14
76406;BME280;65234;50.044;19.258;2023-03-01T12:19:56;99691.03;;;4.53;76.93
76406;BME280;65234;50.044;19.258;2023-03-01T12:22:30;99691.75;;;4.42;77.00
76406;BME280;65234;50.044;19.258;2023-03-01T12:25:12;99682.84;;;4.65;77.51
76406;BME280;65234;50.044;19.258;2023-03-01T12:27:53;99674.88;;;4.72;77.05
76406;BME280;65234;50.044;19.258;2023-03-01T12:30:29;99664.16;;;4.59;77.98
76406;BME280;65234;50.044;19.258;2023-03-01T12:33:07;99667.25;;;4.90;86.42
76406;BME280;65234;50.044;19.258;2023-03-01T12:35:52;99662.13;;;4.89;77.25
76406;BME280;65234;50.044;19.258;2023-03-01T12:38:30;99663.31;;;5.00;76.84
76406;BME280;65234;50.044;19.258;2023-03-01T12:44:12;99651.28;;;4.92;76.12
76406;BME280;65234;50.044;19.258;2023-03-01T12:46:52;99647.28;;;5.02;75.67
76406;BME280;65234;50.044;19.258;2023-03-01T12:49:26;99645.09;;;4.95;73.95
76406;BME280;65234;50.044;19.258;2023-03-01T12:51:57;99647.88;;;5.07;72.98
76406;BME280;65234;50.044;19.258;2023-03-01T12:54:26;99647.97;;;4.99;74.40
76406;BME280;65234;50.044;19.258;2023-03-01T12:56:53;99648.56;;;5.04;74.94